createdAt,value
2016-06-05T00:00:21.024Z,0
2016-06-05T00:01:20.995Z,0
2016-06-05T00:02:20.998Z,0
2016-06-05T00:03:20.985Z,0
2016-06-05T00:04:20.972Z,0
2016-06-05T00:05:20.991Z,0
2016-06-05T00:06:20.978Z,0
2016-06-05T00:07:20.980Z,0
2016-06-05T00:08:21.045Z,0
2016-06-05T00:09:20.986Z,0
2016-06-05T00:10:20.988Z,0
2016-06-05T00:11:20.991Z,0
2016-06-05T00:12:20.994Z,0
2016-06-05T00:13:20.997Z,0
2016-06-05T00:14:20.983Z,0
2016-06-05T00:15:20.985Z,0
2016-06-05T00:16:20.988Z,0
2016-06-05T00:17:20.991Z,0
2016-06-05T00:18:20.994Z,0
2016-06-05T00:19:21.013Z,0
2016-06-05T00:20:20.984Z,0
2016-06-05T00:21:21.002Z,0
2016-06-05T00:22:20.990Z,0
2016-06-05T00:23:21.023Z,0
2016-06-05T00:24:21.010Z,0
2016-06-05T00:25:21.013Z,0
2016-06-05T00:26:21.001Z,0
2016-06-05T00:27:21.003Z,0
2016-06-05T00:28:21.209Z,0
2016-06-05T00:29:20.992Z,0
2016-06-05T00:30:21.011Z,0
2016-06-05T00:31:21.014Z,0
2016-06-05T00:32:21.016Z,0
2016-06-05T00:33:21.034Z,0
2016-06-05T00:34:21.006Z,0
2016-06-05T00:35:20.711Z,0
2016-06-05T00:36:21.011Z,0
2016-06-05T00:37:21.014Z,0
2016-06-05T00:38:21.017Z,0
2016-06-05T00:39:21.019Z,0
2016-06-05T00:40:21.007Z,0
2016-06-05T00:41:21.010Z,0
2016-06-05T00:42:21.028Z,0
2016-06-05T00:43:21.874Z,0
2016-06-05T00:44:21.017Z,0
2016-06-05T00:45:21.021Z,0
2016-06-05T00:46:21.023Z,0
2016-06-05T00:47:20.868Z,0
2016-06-05T00:48:21.012Z,0
2016-06-05T00:49:21.031Z,0
2016-06-05T00:50:21.018Z,0
2016-06-05T00:51:21.037Z,0
2016-06-05T00:52:21.023Z,0
2016-06-05T00:53:21.042Z,0
2016-06-05T00:54:21.029Z,0
2016-06-05T00:55:21.031Z,0
2016-06-05T00:56:21.034Z,0
2016-06-05T00:57:21.037Z,0
2016-06-05T00:58:21.493Z,0
2016-06-05T00:59:20.870Z,0
2016-06-05T01:00:21.029Z,0
2016-06-05T01:01:21.032Z,0
2016-06-05T01:02:21.034Z,0
2016-06-05T01:03:21.052Z,0
2016-06-05T01:04:21.040Z,0
2016-06-05T01:05:21.027Z,0
2016-06-05T01:06:21.030Z,0
2016-06-05T01:07:21.033Z,0
2016-06-05T01:08:21.019Z,0
2016-06-05T01:09:21.038Z,0
2016-06-05T01:10:20.884Z,0
2016-06-05T01:11:21.044Z,0
2016-06-05T01:12:21.046Z,0
2016-06-05T01:13:20.908Z,0
2016-06-05T01:14:21.035Z,0
2016-06-05T01:15:21.038Z,0
2016-06-05T01:16:21.041Z,0
2016-06-05T01:17:21.043Z,0
2016-06-05T01:18:21.046Z,0
2016-06-05T01:19:21.049Z,0
2016-06-05T01:20:21.036Z,0
2016-06-05T01:21:21.055Z,0
2016-06-05T01:22:21.041Z,0
2016-06-05T01:23:21.060Z,0
2016-06-05T01:24:21.046Z,0
2016-06-05T01:25:21.049Z,0
2016-06-05T01:26:21.052Z,0
2016-06-05T01:27:21.054Z,0
2016-06-05T01:28:21.401Z,0
2016-06-05T01:29:21.060Z,0
2016-06-05T01:30:21.062Z,0
2016-06-05T01:31:21.066Z,0
2016-06-05T01:32:21.053Z,0
2016-06-05T01:33:21.055Z,0
2016-06-05T01:34:20.933Z,0
2016-06-05T01:35:21.061Z,0
2016-06-05T01:36:21.064Z,0
2016-06-05T01:37:20.911Z,0
2016-06-05T01:38:21.069Z,0
2016-06-05T01:39:21.071Z,0
2016-06-05T01:40:21.090Z,0
2016-06-05T01:41:21.077Z,0
2016-06-05T01:42:21.064Z,0
2016-06-05T01:43:21.036Z,0
2016-06-05T01:44:21.070Z,0
2016-06-05T01:45:21.057Z,0
2016-06-05T01:46:21.074Z,0
2016-06-05T01:47:21.093Z,0
2016-06-05T01:48:21.080Z,0
2016-06-05T01:49:20.926Z,0
2016-06-05T01:50:21.071Z,0
2016-06-05T01:51:21.073Z,0
2016-06-05T01:52:21.076Z,0
2016-06-05T01:53:21.078Z,0
2016-06-05T01:54:21.081Z,0
2016-06-05T01:55:21.068Z,0
2016-06-05T01:56:21.071Z,0
2016-06-05T01:57:21.073Z,0
2016-06-05T01:58:21.434Z,0
2016-06-05T01:59:20.922Z,0
2016-06-05T02:00:21.238Z,0
2016-06-05T02:01:21.084Z,0
2016-06-05T02:02:21.071Z,0
2016-06-05T02:03:21.106Z,0
2016-06-05T02:04:21.076Z,0
2016-06-05T02:05:21.095Z,0
2016-06-05T02:06:21.081Z,0
2016-06-05T02:07:21.084Z,0
2016-06-05T02:08:21.228Z,0
2016-06-05T02:09:21.074Z,0
2016-06-05T02:10:21.092Z,0
2016-06-05T02:11:21.095Z,0
2016-06-05T02:12:21.098Z,0
2016-06-05T02:13:21.132Z,0
2016-06-05T02:14:21.103Z,0
2016-06-05T02:15:21.090Z,0
2016-06-05T02:16:21.077Z,0
2016-06-05T02:17:21.096Z,0
2016-06-05T02:18:21.098Z,0
2016-06-05T02:19:21.101Z,0
2016-06-05T02:20:20.932Z,0
2016-06-05T02:21:21.107Z,0
2016-06-05T02:22:21.093Z,0
2016-06-05T02:23:21.096Z,0
2016-06-05T02:24:21.114Z,0
2016-06-05T02:25:21.101Z,0
2016-06-05T02:26:21.089Z,0
2016-06-05T02:27:21.091Z,0
2016-06-05T02:28:21.968Z,0
2016-06-05T02:29:20.956Z,0
2016-06-05T02:30:21.099Z,0
2016-06-05T02:31:21.102Z,0
2016-06-05T02:32:21.104Z,0
2016-06-05T02:33:20.967Z,0
2016-06-05T02:34:21.126Z,0
2016-06-05T02:35:21.112Z,0
2016-06-05T02:36:21.115Z,0
2016-06-05T02:37:21.118Z,0
2016-06-05T02:38:21.121Z,0
2016-06-05T02:39:21.108Z,0
2016-06-05T02:40:21.110Z,0
2016-06-05T02:41:21.114Z,0
2016-06-05T02:42:21.116Z,0
2016-06-05T02:43:22.633Z,0
2016-06-05T02:44:20.809Z,0
2016-06-05T02:45:21.108Z,0
2016-06-05T02:46:21.111Z,0
2016-06-05T02:47:21.114Z,0
2016-06-05T02:48:21.117Z,0
2016-06-05T02:49:20.963Z,0
2016-06-05T02:50:21.122Z,0
2016-06-05T02:51:20.953Z,0
2016-06-05T02:52:21.363Z,0
2016-06-05T02:53:21.130Z,0
2016-06-05T02:54:21.117Z,0
2016-06-05T02:55:21.121Z,0
2016-06-05T02:56:21.123Z,0
2016-06-05T02:57:21.125Z,0
2016-06-05T02:58:20.972Z,0
2016-06-05T02:59:21.115Z,0
2016-06-05T03:00:21.117Z,0
2016-06-05T03:01:21.136Z,0
2016-06-05T03:02:21.123Z,0
2016-06-05T03:03:21.126Z,0
2016-06-05T03:04:21.128Z,0
2016-06-05T03:05:21.131Z,0
2016-06-05T03:06:21.133Z,0
2016-06-05T03:07:21.136Z,0
2016-06-05T03:08:21.123Z,0
2016-06-05T03:09:21.125Z,0
2016-06-05T03:10:21.145Z,0
2016-06-05T03:11:21.132Z,0
2016-06-05T03:12:21.150Z,0
2016-06-05T03:13:21.387Z,0
2016-06-05T03:14:21.139Z,0
2016-06-05T03:15:21.142Z,0
2016-06-05T03:16:21.145Z,0
2016-06-05T03:17:21.132Z,0
2016-06-05T03:18:21.135Z,0
2016-06-05T03:19:20.980Z,0
2016-06-05T03:20:21.140Z,0
2016-06-05T03:21:21.143Z,0
2016-06-05T03:22:21.145Z,0
2016-06-05T03:23:21.148Z,0
2016-06-05T03:24:21.151Z,0
2016-06-05T03:25:21.169Z,0
2016-06-05T03:26:21.141Z,0
2016-06-05T03:27:21.143Z,0
2016-06-05T03:28:21.162Z,0
2016-06-05T03:29:20.993Z,0
2016-06-05T03:30:21.135Z,0
2016-06-05T03:31:21.138Z,0
2016-06-05T03:32:21.173Z,0
2016-06-05T03:33:21.159Z,0
2016-06-05T03:34:21.146Z,0
2016-06-05T03:35:21.165Z,0
2016-06-05T03:36:21.152Z,0
2016-06-05T03:37:21.154Z,0
2016-06-05T03:38:21.142Z,0
2016-06-05T03:39:21.145Z,0
2016-06-05T03:40:21.162Z,0
2016-06-05T03:41:20.853Z,0
2016-06-05T03:42:21.167Z,0
2016-06-05T03:43:21.562Z,0
2016-06-05T03:44:21.173Z,0
2016-06-05T03:45:21.160Z,0
2016-06-05T03:46:21.147Z,0
2016-06-05T03:47:21.166Z,0
2016-06-05T03:48:21.169Z,0
2016-06-05T03:49:21.172Z,0
2016-06-05T03:50:21.174Z,0
2016-06-05T03:51:21.161Z,5
2016-06-05T03:52:21.164Z,5
2016-06-05T03:53:21.182Z,5
2016-06-05T03:54:21.169Z,5
2016-06-05T03:55:21.172Z,5
2016-06-05T03:56:21.190Z,5
2016-06-05T03:57:21.177Z,5
2016-06-05T03:58:21.804Z,5
2016-06-05T03:59:21.167Z,5
2016-06-05T04:00:21.170Z,5
2016-06-05T04:01:21.173Z,5
2016-06-05T04:02:21.019Z,5
2016-06-05T04:03:21.178Z,5
2016-06-05T04:04:21.040Z,10
2016-06-05T04:05:21.168Z,10
2016-06-05T04:06:21.186Z,10
2016-06-05T04:07:21.173Z,10
2016-06-05T04:08:21.331Z,10
2016-06-05T04:09:21.178Z,10
2016-06-05T04:10:21.165Z,10
2016-06-05T04:11:21.200Z,15
2016-06-05T04:12:21.202Z,15
2016-06-05T04:13:21.298Z,15
2016-06-05T04:14:21.176Z,15
2016-06-05T04:15:21.179Z,15
2016-06-05T04:16:21.181Z,15
2016-06-05T04:17:21.191Z,15
2016-06-05T04:18:21.221Z,15
2016-06-05T04:19:21.267Z,15
2016-06-05T04:20:21.267Z,15
2016-06-05T04:21:21.297Z,15
2016-06-05T04:22:21.323Z,15
2016-06-05T04:23:21.335Z,15
2016-06-05T04:24:21.348Z,15
2016-06-05T04:25:21.345Z,15
2016-06-05T04:26:21.374Z,15
2016-06-05T04:27:21.385Z,15
2016-06-05T04:28:21.517Z,15
2016-06-05T04:29:21.601Z,15
2016-06-05T04:30:21.389Z,15
2016-06-05T04:31:21.239Z,15
2016-06-05T04:32:21.385Z,15
2016-06-05T04:33:21.404Z,15
2016-06-05T04:34:21.409Z,15
2016-06-05T04:35:21.412Z,15
2016-06-05T04:36:21.416Z,15
2016-06-05T04:37:21.419Z,15
2016-06-05T04:38:21.423Z,15
2016-06-05T04:39:21.425Z,15
2016-06-05T04:40:21.413Z,15
2016-06-05T04:41:21.260Z,15
2016-06-05T04:42:21.419Z,15
2016-06-05T04:43:22.048Z,15
2016-06-05T04:44:21.442Z,10
2016-06-05T04:45:21.428Z,10
2016-06-05T04:46:21.417Z,10
2016-06-05T04:47:21.419Z,10
2016-06-05T04:48:21.422Z,10
2016-06-05T04:49:21.425Z,10
2016-06-05T04:50:21.427Z,10
2016-06-05T04:51:21.430Z,10
2016-06-05T04:52:21.433Z,15
2016-06-05T04:53:21.436Z,15
2016-06-05T04:54:21.422Z,15
2016-06-05T04:55:21.441Z,15
2016-06-05T04:56:21.427Z,15
2016-06-05T04:57:21.275Z,15
2016-06-05T04:58:22.027Z,15
2016-06-05T04:59:21.452Z,15
2016-06-05T05:00:21.438Z,15
2016-06-05T05:01:21.441Z,15
2016-06-05T05:02:21.429Z,10
2016-06-05T05:03:21.431Z,10
2016-06-05T05:04:21.277Z,10
2016-06-05T05:05:21.437Z,10
2016-06-05T05:06:21.455Z,10
2016-06-05T05:07:21.457Z,10
2016-06-05T05:08:21.429Z,15
2016-06-05T05:09:21.448Z,15
2016-06-05T05:10:21.435Z,15
2016-06-05T05:11:21.437Z,15
2016-06-05T05:12:21.439Z,15
2016-06-05T05:13:21.584Z,15
2016-06-05T05:14:21.445Z,15
2016-06-05T05:15:21.448Z,15
2016-06-05T05:16:21.450Z,15
2016-06-05T05:17:21.453Z,20
2016-06-05T05:18:21.440Z,20
2016-06-05T05:19:21.442Z,25
2016-06-05T05:20:21.445Z,25
2016-06-05T05:21:21.448Z,25
2016-06-05T05:22:21.451Z,25
2016-06-05T05:23:21.454Z,25
2016-06-05T05:24:21.456Z,25
2016-06-05T05:25:21.459Z,25
2016-06-05T05:26:21.447Z,25
2016-06-05T05:27:21.464Z,25
2016-06-05T05:28:21.467Z,25
2016-06-05T05:29:21.469Z,25
2016-06-05T05:30:21.472Z,25
2016-06-05T05:31:21.475Z,30
2016-06-05T05:32:21.463Z,30
2016-06-05T05:33:21.465Z,30
2016-06-05T05:34:21.468Z,30
2016-06-05T05:35:21.454Z,30
2016-06-05T05:36:21.457Z,30
2016-06-05T05:37:21.460Z,35
2016-06-05T05:38:21.479Z,35
2016-06-05T05:39:21.481Z,40
2016-06-05T05:40:21.484Z,45
2016-06-05T05:41:21.471Z,45
2016-06-05T05:42:21.458Z,50
2016-06-05T05:43:21.507Z,50
2016-06-05T05:44:21.478Z,55
2016-06-05T05:45:21.482Z,55
2016-06-05T05:46:21.468Z,60
2016-06-05T05:47:21.487Z,60
2016-06-05T05:48:21.473Z,60
2016-06-05T05:49:21.336Z,65
2016-06-05T05:50:21.479Z,75
2016-06-05T05:51:21.482Z,80
2016-06-05T05:52:21.484Z,85
2016-06-05T05:53:21.362Z,85
2016-06-05T05:54:21.475Z,85
2016-06-05T05:55:21.492Z,80
2016-06-05T05:56:21.480Z,80
2016-06-05T05:57:21.498Z,75
2016-06-05T05:58:21.486Z,75
2016-06-05T05:59:21.488Z,75
2016-06-05T06:00:22.428Z,70
2016-06-05T06:01:21.494Z,70
2016-06-05T06:02:21.511Z,70
2016-06-05T06:03:21.499Z,70
2016-06-05T06:04:21.346Z,70
2016-06-05T06:05:21.504Z,70
2016-06-05T06:06:21.491Z,70
2016-06-05T06:07:21.337Z,70
2016-06-05T06:08:21.402Z,65
2016-06-05T06:09:21.499Z,65
2016-06-05T06:10:21.501Z,60
2016-06-05T06:11:21.504Z,60
2016-06-05T06:12:21.492Z,60
2016-06-05T06:13:21.057Z,55
2016-06-05T06:14:21.512Z,50
2016-06-05T06:15:21.343Z,50
2016-06-05T06:16:21.503Z,50
2016-06-05T06:17:21.364Z,50
2016-06-05T06:18:21.523Z,50
2016-06-05T06:19:21.511Z,50
2016-06-05T06:20:21.357Z,50
2016-06-05T06:21:21.203Z,50
2016-06-05T06:22:21.519Z,55
2016-06-05T06:23:21.505Z,50
2016-06-05T06:24:21.509Z,50
2016-06-05T06:25:21.527Z,45
2016-06-05T06:26:21.529Z,45
2016-06-05T06:27:21.516Z,40
2016-06-05T06:28:22.160Z,40
2016-06-05T06:29:21.521Z,35
2016-06-05T06:30:21.524Z,35
2016-06-05T06:31:21.371Z,35
2016-06-05T06:32:21.530Z,35
2016-06-05T06:33:21.532Z,35
2016-06-05T06:34:21.535Z,40
2016-06-05T06:35:21.554Z,40
2016-06-05T06:36:21.540Z,40
2016-06-05T06:37:21.543Z,45
2016-06-05T06:38:21.530Z,45
2016-06-05T06:39:21.549Z,45
2016-06-05T06:40:21.551Z,45
2016-06-05T06:41:21.538Z,50
2016-06-05T06:42:21.557Z,50
2016-06-05T06:43:22.528Z,55
2016-06-05T06:44:21.531Z,60
2016-06-05T06:45:21.549Z,60
2016-06-05T06:46:21.551Z,60
2016-06-05T06:47:21.540Z,60
2016-06-05T06:48:21.542Z,55
2016-06-05T06:49:21.559Z,55
2016-06-05T06:50:21.547Z,50
2016-06-05T06:51:21.565Z,50
2016-06-05T06:52:21.568Z,50
2016-06-05T06:53:21.398Z,50
2016-06-05T06:54:21.558Z,45
2016-06-05T06:55:21.560Z,50
2016-06-05T06:56:21.563Z,50
2016-06-05T06:57:21.566Z,55
2016-06-05T06:58:22.741Z,55
2016-06-05T06:59:21.571Z,60
2016-06-05T07:00:21.574Z,60
2016-06-05T07:01:21.561Z,55
2016-06-05T07:02:21.563Z,55
2016-06-05T07:03:21.582Z,55
2016-06-05T07:04:21.585Z,60
2016-06-05T07:05:21.588Z,60
2016-06-05T07:06:21.575Z,65
2016-06-05T07:07:21.577Z,65
2016-06-05T07:08:21.580Z,65
2016-06-05T07:09:21.583Z,65
2016-06-05T07:10:21.601Z,70
2016-06-05T07:11:21.587Z,70
2016-06-05T07:12:21.590Z,70
2016-06-05T07:13:22.407Z,70
2016-06-05T07:14:21.596Z,70
2016-06-05T07:15:21.583Z,70
2016-06-05T07:16:21.585Z,70
2016-06-05T07:17:21.603Z,75
2016-06-05T07:18:21.591Z,80
2016-06-05T07:19:21.594Z,80
2016-06-05T07:20:21.596Z,85
2016-06-05T07:21:21.614Z,95
2016-06-05T07:22:21.601Z,100
2016-06-05T07:23:21.620Z,110
2016-06-05T07:24:21.607Z,120
2016-06-05T07:25:21.453Z,125
2016-06-05T07:26:21.612Z,125
2016-06-05T07:27:21.615Z,120
2016-06-05T07:28:22.681Z,115
2016-06-05T07:29:21.620Z,110
2016-06-05T07:30:21.623Z,100
2016-06-05T07:31:21.611Z,95
2016-06-05T07:32:21.613Z,90
2016-06-05T07:33:21.631Z,90
2016-06-05T07:34:21.634Z,85
2016-06-05T07:35:21.465Z,90
2016-06-05T07:36:21.639Z,90
2016-06-05T07:37:21.626Z,90
2016-06-05T07:38:21.661Z,90
2016-06-05T07:39:21.647Z,95
2016-06-05T07:40:21.479Z,95
2016-06-05T07:41:21.637Z,100
2016-06-05T07:42:21.640Z,105
2016-06-05T07:43:21.643Z,110
2016-06-05T07:44:21.879Z,115
2016-06-05T07:45:21.648Z,115
2016-06-05T07:46:21.635Z,120
2016-06-05T07:47:21.638Z,120
2016-06-05T07:48:21.656Z,130
2016-06-05T07:49:21.659Z,140
2016-06-05T07:50:21.662Z,140
2016-06-05T07:51:21.648Z,135
2016-06-05T07:52:21.495Z,130
2016-06-05T07:53:21.685Z,120
2016-06-05T07:54:21.656Z,120
2016-06-05T07:55:21.675Z,120
2016-06-05T07:56:21.662Z,120
2016-06-05T07:57:21.664Z,130
2016-06-05T07:58:21.684Z,135
2016-06-05T07:59:21.670Z,115
2016-06-05T08:00:21.516Z,90
2016-06-05T08:01:21.676Z,80
2016-06-05T08:02:21.678Z,70
2016-06-05T08:03:21.665Z,65
2016-06-05T08:04:21.683Z,60
2016-06-05T08:05:21.686Z,60
2016-06-05T08:06:21.689Z,65
2016-06-05T08:07:21.691Z,70
2016-06-05T08:08:21.585Z,70
2016-06-05T08:09:21.697Z,65
2016-06-05T08:10:21.543Z,65
2016-06-05T08:11:21.687Z,60
2016-06-05T08:12:21.705Z,60
2016-06-05T08:13:22.552Z,60
2016-06-05T08:14:21.695Z,60
2016-06-05T08:15:21.712Z,60
2016-06-05T08:16:21.700Z,60
2016-06-05T08:17:21.718Z,60
2016-06-05T08:18:21.706Z,55
2016-06-05T08:19:21.551Z,50
2016-06-05T08:20:21.726Z,50
2016-06-05T08:21:21.729Z,50
2016-06-05T08:22:21.716Z,50
2016-06-05T08:23:21.720Z,50
2016-06-05T08:24:21.722Z,50
2016-06-05T08:25:21.568Z,55
2016-06-05T08:26:21.727Z,60
2016-06-05T08:27:21.730Z,70
2016-06-05T08:28:21.717Z,80
2016-06-05T08:29:21.736Z,90
2016-06-05T08:30:21.738Z,95
2016-06-05T08:31:21.741Z,95
2016-06-05T08:32:21.603Z,95
2016-06-05T08:33:21.747Z,90
2016-06-05T08:34:21.749Z,85
2016-06-05T08:35:21.611Z,80
2016-06-05T08:36:21.754Z,80
2016-06-05T08:37:21.757Z,80
2016-06-05T08:38:21.759Z,80
2016-06-05T08:39:21.762Z,75
2016-06-05T08:40:21.593Z,70
2016-06-05T08:41:21.768Z,65
2016-06-05T08:42:21.614Z,65
2016-06-05T08:43:22.991Z,60
2016-06-05T08:44:21.776Z,60
2016-06-05T08:45:21.779Z,65
2016-06-05T08:46:21.781Z,70
2016-06-05T08:47:21.784Z,80
2016-06-05T08:48:21.771Z,90
2016-06-05T08:49:21.789Z,95
2016-06-05T08:50:21.635Z,105
2016-06-05T08:51:21.779Z,105
2016-06-05T08:52:21.797Z,110
2016-06-05T08:53:21.800Z,110
2016-06-05T08:54:21.786Z,110
2016-06-05T08:55:21.789Z,110
2016-06-05T08:56:21.792Z,110
2016-06-05T08:57:21.795Z,100
2016-06-05T08:58:22.734Z,90
2016-06-05T08:59:21.816Z,85
2016-06-05T09:00:21.819Z,80
2016-06-05T09:01:21.806Z,80
2016-06-05T09:02:21.808Z,85
2016-06-05T09:03:21.827Z,95
2016-06-05T09:04:21.814Z,100
2016-06-05T09:05:21.817Z,110
2016-06-05T09:06:21.819Z,115
2016-06-05T09:07:21.681Z,130
2016-06-05T09:08:21.825Z,145
2016-06-05T09:09:21.827Z,160
2016-06-05T09:10:21.830Z,165
2016-06-05T09:11:21.832Z,170
2016-06-05T09:12:21.835Z,170
2016-06-05T09:13:21.869Z,170
2016-06-05T09:14:21.840Z,165
2016-06-05T09:15:21.843Z,155
2016-06-05T09:16:21.846Z,150
2016-06-05T09:17:21.708Z,145
2016-06-05T09:18:21.867Z,140
2016-06-05T09:19:21.854Z,140
2016-06-05T09:20:21.841Z,140
2016-06-05T09:21:21.844Z,140
2016-06-05T09:22:21.862Z,145
2016-06-05T09:23:21.864Z,145
2016-06-05T09:24:21.867Z,145
2016-06-05T09:25:21.871Z,145
2016-06-05T09:26:21.889Z,140
2016-06-05T09:27:21.891Z,140
2016-06-05T09:28:22.331Z,135
2016-06-05T09:29:21.881Z,130
2016-06-05T09:30:21.728Z,130
2016-06-05T09:31:21.886Z,130
2016-06-05T09:32:21.733Z,125
2016-06-05T09:33:21.908Z,125
2016-06-05T09:34:21.895Z,120
2016-06-05T09:35:21.881Z,120
2016-06-05T09:36:21.899Z,115
2016-06-05T09:37:21.902Z,110
2016-06-05T09:38:21.889Z,105
2016-06-05T09:39:21.595Z,100
2016-06-05T09:40:21.910Z,95
2016-06-05T09:41:21.914Z,85
2016-06-05T09:42:21.916Z,80
2016-06-05T09:43:21.777Z,70
2016-06-05T09:44:21.921Z,60
2016-06-05T09:45:21.924Z,55
2016-06-05T09:46:21.771Z,45
2016-06-05T09:47:21.913Z,45
2016-06-05T09:48:21.932Z,40
2016-06-05T09:49:21.779Z,40
2016-06-05T09:50:21.954Z,40
2016-06-05T09:51:21.799Z,40
2016-06-05T09:52:21.927Z,40
2016-06-05T09:53:21.929Z,40
2016-06-05T09:54:21.948Z,45
2016-06-05T09:55:21.795Z,45
2016-06-05T09:56:21.954Z,50
2016-06-05T09:57:21.940Z,55
2016-06-05T09:58:22.146Z,60
2016-06-05T09:59:21.946Z,65
2016-06-05T10:00:21.965Z,70
2016-06-05T10:01:21.967Z,75
2016-06-05T10:02:21.954Z,75
2016-06-05T10:03:21.956Z,80
2016-06-05T10:04:21.959Z,85
2016-06-05T10:05:21.993Z,90
2016-06-05T10:06:21.981Z,95
2016-06-05T10:07:21.827Z,100
2016-06-05T10:08:22.017Z,105
2016-06-05T10:09:21.972Z,110
2016-06-05T10:10:21.991Z,115
2016-06-05T10:11:21.822Z,125
2016-06-05T10:12:21.981Z,130
2016-06-05T10:13:22.640Z,135
2016-06-05T10:14:22.001Z,140
2016-06-05T10:15:21.832Z,150
2016-06-05T10:16:21.991Z,150
2016-06-05T10:17:21.854Z,155
2016-06-05T10:18:22.012Z,155
2016-06-05T10:19:22.749Z,155
2016-06-05T10:20:21.862Z,155
2016-06-05T10:21:22.004Z,150
2016-06-05T10:22:22.007Z,155
2016-06-05T10:23:22.010Z,155
2016-06-05T10:24:22.013Z,155
2016-06-05T10:25:22.016Z,160
2016-06-05T10:26:22.034Z,165
2016-06-05T10:27:22.020Z,170
2016-06-05T10:28:23.337Z,175
2016-06-05T10:29:22.137Z,180
2016-06-05T10:30:22.045Z,190
2016-06-05T10:31:22.031Z,200
2016-06-05T10:32:22.034Z,205
2016-06-05T10:33:22.037Z,215
2016-06-05T10:34:22.040Z,220
2016-06-05T10:35:22.042Z,230
2016-06-05T10:36:22.045Z,235
2016-06-05T10:37:22.048Z,235
2016-06-05T10:38:22.066Z,235
2016-06-05T10:39:22.053Z,235
2016-06-05T10:40:21.916Z,240
2016-06-05T10:41:21.902Z,235
2016-06-05T10:42:22.061Z,245
2016-06-05T10:43:22.721Z,260
2016-06-05T10:44:22.066Z,270
2016-06-05T10:45:22.086Z,275
2016-06-05T10:46:22.088Z,270
2016-06-05T10:47:22.074Z,270
2016-06-05T10:48:22.093Z,265
2016-06-05T10:49:22.080Z,255
2016-06-05T10:50:22.083Z,245
2016-06-05T10:51:22.101Z,225
2016-06-05T10:52:22.104Z,200
2016-06-05T10:53:22.106Z,180
2016-06-05T10:54:22.110Z,170
2016-06-05T10:55:22.112Z,165
2016-06-05T10:56:22.131Z,170
2016-06-05T10:57:22.117Z,180
2016-06-05T10:58:22.573Z,180
2016-06-05T10:59:22.701Z,190
2016-06-05T11:00:22.125Z,195
2016-06-05T11:01:21.972Z,215
2016-06-05T11:02:22.131Z,225
2016-06-05T11:03:22.134Z,235
2016-06-05T11:04:22.153Z,240
2016-06-05T11:05:22.139Z,250
2016-06-05T11:06:21.985Z,260
2016-06-05T11:07:22.160Z,270
2016-06-05T11:08:22.163Z,280
2016-06-05T11:09:22.150Z,290
2016-06-05T11:10:22.184Z,300
2016-06-05T11:11:22.014Z,300
2016-06-05T11:12:22.174Z,300
2016-06-05T11:13:22.208Z,300
2016-06-05T11:14:22.180Z,305
2016-06-05T11:15:22.024Z,310
2016-06-05T11:16:22.184Z,310
2016-06-05T11:17:22.202Z,315
2016-06-05T11:18:22.033Z,315
2016-06-05T11:19:22.193Z,315
2016-06-05T11:20:22.179Z,310
2016-06-05T11:21:22.198Z,310
2016-06-05T11:22:22.200Z,305
2016-06-05T11:23:22.203Z,305
2016-06-05T11:24:22.221Z,300
2016-06-05T11:25:22.240Z,300
2016-06-05T11:26:22.227Z,300
2016-06-05T11:27:22.215Z,300
2016-06-05T11:28:22.873Z,305
2016-06-05T11:29:22.220Z,305
2016-06-05T11:30:22.237Z,305
2016-06-05T11:31:22.240Z,305
2016-06-05T11:32:22.243Z,305
2016-06-05T11:33:22.245Z,305
2016-06-05T11:34:22.248Z,310
2016-06-05T11:35:22.251Z,305
2016-06-05T11:36:22.253Z,305
2016-06-05T11:37:22.256Z,300
2016-06-05T11:38:22.119Z,300
2016-06-05T11:39:22.278Z,295
2016-06-05T11:40:22.280Z,295
2016-06-05T11:41:22.283Z,295
2016-06-05T11:42:22.285Z,295
2016-06-05T11:43:22.147Z,295
2016-06-05T11:44:22.510Z,290
2016-06-05T11:45:22.294Z,290
2016-06-05T11:46:22.296Z,290
2016-06-05T11:47:22.158Z,285
2016-06-05T11:48:22.317Z,280
2016-06-05T11:49:22.319Z,280
2016-06-05T11:50:22.307Z,275
2016-06-05T11:51:22.309Z,270
2016-06-05T11:52:22.327Z,270
2016-06-05T11:53:22.331Z,270
2016-06-05T11:54:22.349Z,265
2016-06-05T11:55:22.335Z,265
2016-06-05T11:56:22.338Z,260
2016-06-05T11:57:22.357Z,260
2016-06-05T11:58:24.453Z,255
2016-06-05T11:59:22.362Z,255
2016-06-05T12:00:22.365Z,250
2016-06-05T12:01:22.367Z,245
2016-06-05T12:02:22.386Z,245
2016-06-05T12:03:22.217Z,245
2016-06-05T12:04:22.375Z,245
2016-06-05T12:05:22.379Z,240
2016-06-05T12:06:22.382Z,235
2016-06-05T12:07:22.242Z,235
2016-06-05T12:08:22.403Z,230
2016-06-05T12:09:22.406Z,230
2016-06-05T12:10:22.251Z,225
2016-06-05T12:11:22.411Z,225
2016-06-05T12:12:22.414Z,225
2016-06-05T12:13:23.650Z,220
2016-06-05T12:14:22.418Z,220
2016-06-05T12:15:22.422Z,215
2016-06-05T12:16:22.424Z,215
2016-06-05T12:17:22.269Z,210
2016-06-05T12:18:22.461Z,210
2016-06-05T12:19:22.463Z,210
2016-06-05T12:20:22.450Z,205
2016-06-05T12:21:22.469Z,200
2016-06-05T12:22:22.455Z,200
2016-06-05T12:23:22.458Z,195
2016-06-05T12:24:22.476Z,190
2016-06-05T12:25:22.464Z,185
2016-06-05T12:26:22.465Z,175
2016-06-05T12:27:22.484Z,170
2016-06-05T12:28:22.331Z,165
2016-06-05T12:29:22.490Z,155
2016-06-05T12:30:22.476Z,140
2016-06-05T12:31:22.495Z,120
2016-06-05T12:32:22.482Z,100
2016-06-05T12:33:22.501Z,85
2016-06-05T12:34:22.504Z,80
2016-06-05T12:35:22.522Z,70
2016-06-05T12:36:22.524Z,65
2016-06-05T12:37:22.528Z,65
2016-06-05T12:38:22.530Z,65
2016-06-05T12:39:22.533Z,70
2016-06-05T12:40:22.519Z,75
2016-06-05T12:41:22.539Z,80
2016-06-05T12:42:22.541Z,80
2016-06-05T12:43:22.778Z,85
2016-06-05T12:44:22.547Z,80
2016-06-05T12:45:22.549Z,80
2016-06-05T12:46:22.552Z,75
2016-06-05T12:47:22.397Z,80
2016-06-05T12:48:22.557Z,80
2016-06-05T12:49:22.560Z,75
2016-06-05T12:50:22.577Z,65
2016-06-05T12:51:22.565Z,55
2016-06-05T12:52:22.568Z,50
2016-06-05T12:53:22.571Z,55
2016-06-05T12:54:22.588Z,60
2016-06-05T12:55:22.576Z,65
2016-06-05T12:56:22.438Z,65
2016-06-05T12:57:22.582Z,65
2016-06-05T12:58:22.959Z,60
2016-06-05T12:59:22.601Z,65
2016-06-05T13:00:22.621Z,65
2016-06-05T13:01:22.607Z,75
2016-06-05T13:02:22.609Z,90
2016-06-05T13:03:22.613Z,105
2016-06-05T13:04:22.615Z,110
2016-06-05T13:05:22.618Z,115
2016-06-05T13:06:22.621Z,120
2016-06-05T13:07:22.623Z,130
2016-06-05T13:08:22.689Z,135
2016-06-05T13:09:22.644Z,140
2016-06-05T13:10:22.631Z,145
2016-06-05T13:11:22.494Z,155
2016-06-05T13:12:22.481Z,155
2016-06-05T13:13:23.405Z,155
2016-06-05T13:14:22.658Z,155
2016-06-05T13:15:22.505Z,160
2016-06-05T13:16:22.663Z,160
2016-06-05T13:17:22.681Z,160
2016-06-05T13:18:22.669Z,155
2016-06-05T13:19:22.671Z,150
2016-06-05T13:20:22.674Z,145
2016-06-05T13:21:22.661Z,135
2016-06-05T13:22:22.694Z,130
2016-06-05T13:23:22.537Z,130
2016-06-05T13:24:22.719Z,125
2016-06-05T13:25:22.745Z,125
2016-06-05T13:26:22.771Z,125
2016-06-05T13:27:22.797Z,125
2016-06-05T13:28:22.691Z,130
2016-06-05T13:29:22.828Z,130
2016-06-05T13:30:22.839Z,135
2016-06-05T13:31:22.850Z,135
2016-06-05T13:32:22.877Z,130
2016-06-05T13:33:22.885Z,130
2016-06-05T13:34:22.876Z,125
2016-06-05T13:35:22.913Z,125
2016-06-05T13:36:22.888Z,120
2016-06-05T13:37:22.908Z,115
2016-06-05T13:38:22.913Z,110
2016-06-05T13:39:22.917Z,105
2016-06-05T13:40:22.921Z,105
2016-06-05T13:41:22.768Z,105
2016-06-05T13:42:22.772Z,105
2016-06-05T13:43:24.697Z,105
2016-06-05T13:44:22.935Z,100
2016-06-05T13:45:22.938Z,100
2016-06-05T13:46:22.940Z,105
2016-06-05T13:47:22.944Z,105
2016-06-05T13:48:22.947Z,100
2016-06-05T13:49:22.965Z,100
2016-06-05T13:50:22.827Z,100
2016-06-05T13:51:22.955Z,100
2016-06-05T13:52:22.973Z,100
2016-06-05T13:53:22.835Z,100
2016-06-05T13:54:22.823Z,95
2016-06-05T13:55:22.966Z,95
2016-06-05T13:56:22.985Z,100
2016-06-05T13:57:22.831Z,100
2016-06-05T13:58:22.834Z,100
2016-06-05T13:59:24.071Z,105
2016-06-05T14:00:22.995Z,105
2016-06-05T14:01:22.842Z,105
2016-06-05T14:02:23.000Z,110
2016-06-05T14:03:22.862Z,115
2016-06-05T14:04:23.022Z,120
2016-06-05T14:05:23.009Z,120
2016-06-05T14:06:23.011Z,120
2016-06-05T14:07:23.014Z,120
2016-06-05T14:08:23.064Z,120
2016-06-05T14:09:23.019Z,115
2016-06-05T14:10:23.022Z,115
2016-06-05T14:11:23.040Z,110
2016-06-05T14:12:23.027Z,110
2016-06-05T14:13:23.890Z,110
2016-06-05T14:14:23.049Z,105